sensor_id;sensor_type;location;lat;lon;timestamp;pressure;altitude;pressure_sealevel;temperature;humidity
22605;BME280;11469;49.024;8.246;2023-03-16T00:01:13;100857.19;;;0.03;100.00
22605;BME280;11469;49.024;8.246;2023-03-16T00:03:39;100872.91;;;0.03;100.00
22605;BME280;11469;49.024;8.246;2023-03-16T00:06:04;100868.25;;;-0.07;100.00
22605;BME280;11469;49.024;8.246;2023-03-16T00:08:30;100863.03;;;-0.09;100.00
22605;BME280;11469;49.024;8.246;2023-03-16T00:10:55;100869.94;;;-0.11;100.00
22605;BME280;11469;49.024;8.246;2023-03-16T00:13:23;100867.97;;;-0.06;100.00
22605;BME280;11469;49.024;8.246;2023-03-16T00:16:01;100874.63;;;-0.12;100.00
22605;BME280;11469;49.024;8.246;2023-03-16T00:18:31;100872.41;;;-0.10;100.00
22605;BME280;11469;49.024;8.246;2023-03-16T00:21:03;100877.91;;;-0.15;100.00
22605;BME280;11469;49.024;8.246;2023-03-16T00:23:30;100880.13;;;-0.22;100.00
22605;BME280;11469;49.024;8.246;2023-03-16T00:26:01;100878.75;;;-0.19;100.00
22605;BME280;11469;49.024;8.246;2023-03-16T00:28:31;100877.66;;;-0.18;100.00
22605;BME280;11469;49.024;8.246;2023-03-16T00:31:07;100879.84;;;-0.15;100.00
22605;BME280;11469;49.024;8.246;2023-03-16T00:33:33;100869.94;;;-0.26;100.00
22605;BME280;11469;49.024;8.246;2023-03-16T00:36:03;100871.59;;;-0.30;100.00
22605;BME280;11469;49.024;8.246;2023-03-16T00:38:31;100871.31;;;-0.24;100.00
22605;BME280;11469;49.024;8.246;2023-03-16T00:40:59;100866.66;;;-0.28;100.00
22605;BME280;11469;49.024;8.246;2023-03-16T00:43:24;100865.84;;;-0.39;100.00
22605;BME280;11469;49.024;8.246;2023-03-16T00:45:56;100859.78;;;-0.46;100.00
22605;BME280;11469;49.024;8.246;2023-03-16T00:48:23;100866.97;;;-0.50;100.00
22605;BME280;11469;49.024;8.246;2023-03-16T00:50:48;100858.69;;;-0.45;100.00
22605;BME280;11469;49.024;8.246;2023-03-16T00:53:13;100857.84;;;-0.46;100.00
22605;BME280;11469;49.024;8.246;2023-03-16T00:55:39;100848.53;;;-0.50;100.00
22605;BME280;11469;49.024;8.246;2023-03-16T00:58:05;100851.56;;;-0.51;100.00
22605;BME280;11469;49.024;8.246;2023-03-16T01:00:31;100849.88;;;-0.47;100.00
22605;BME280;11469;49.024;8.246;2023-03-16T01:02:56;100846.88;;;-0.51;100.00
22605;BME280;11469;49.024;8.246;2023-03-16T01:05:21;100850.44;;;-0.50;100.00
22605;BME280;11469;49.024;8.246;2023-03-16T01:07:47;100846.28;;;-0.43;100.00
22605;BME280;11469;49.024;8.246;2023-03-16T01:10:12;100847.66;;;-0.40;100.00
22605;BME280;11469;49.024;8.246;2023-03-16T01:12:38;100849.59;;;-0.36;100.00
22605;BME280;11469;49.024;8.246;2023-03-16T01:15:04;100844.63;;;-0.39;100.00
22605;BME280;11469;49.024;8.246;2023-03-16T01:17:29;100845.19;;;-0.37;100.00
22605;BME280;11469;49.024;8.246;2023-03-16T01:19:59;100843.78;;;-0.34;100.00
22605;BME280;11469;49.024;8.246;2023-03-16T01:22:24;100850.69;;;-0.37;100.00
22605;BME280;11469;49.024;8.246;2023-03-16T01:24:50;100843.78;;;-0.34;100.00
22605;BME280;11469;49.024;8.246;2023-03-16T01:27:16;100842.41;;;-0.37;100.00
22605;BME280;11469;49.024;8.246;2023-03-16T01:29:41;100839.38;;;-0.35;100.00
22605;BME280;11469;49.024;8.246;2023-03-16T01:32:08;100840.50;;;-0.36;100.00
22605;BME280;11469;49.024;8.246;2023-03-16T01:34:33;100825.91;;;-0.37;100.00
22605;BME280;11469;49.024;8.246;2023-03-16T01:36:59;100820.94;;;-0.35;100.00
22605;BME280;11469;49.024;8.246;2023-03-16T01:39:25;100815.16;;;-0.38;100.00
22605;BME280;11469;49.024;8.246;2023-03-16T01:41:51;100812.97;;;-0.41;100.00
22605;BME280;11469;49.024;8.246;2023-03-16T01:44:20;100810.47;;;-0.43;100.00
22605;BME280;11469;49.024;8.246;2023-03-16T01:46:48;100810.53;;;-0.48;100.00
22605;BME280;11469;49.024;8.246;2023-03-16T01:49:17;100812.97;;;-0.46;100.00
22605;BME280;11469;49.024;8.246;2023-03-16T01:52:07;100822.59;;;-0.44;100.00
22605;BME280;11469;49.024;8.246;2023-03-16T01:54:35;100834.44;;;-0.43;100.00
22605;BME280;11469;49.024;8.246;2023-03-16T01:57:19;100828.94;;;-0.38;100.00
22605;BME280;11469;49.024;8.246;2023-03-16T01:59:56;100825.63;;;-0.45;100.00
22605;BME280;11469;49.024;8.246;2023-03-16T02:02:32;100829.22;;;-0.45;100.00
22605;BME280;11469;49.024;8.246;2023-03-16T02:05:10;100828.72;;;-0.57;100.00
22605;BME280;11469;49.024;8.246;2023-03-16T02:07:46;100816.88;;;-0.62;100.00
22605;BME280;11469;49.024;8.246;2023-03-16T02:10:14;100821.00;;;-0.55;100.00
22605;BME280;11469;49.024;8.246;2023-03-16T02:12:40;100818.50;;;-0.51;100.00
22605;BME280;11469;49.024;8.246;2023-03-16T02:15:05;100812.41;;;-0.43;100.00
22605;BME280;11469;49.024;8.246;2023-03-16T02:17:33;100812.41;;;-0.43;100.00
22605;BME280;11469;49.024;8.246;2023-03-16T02:22:31;100794.50;;;-0.46;100.00
22605;BME280;11469;49.024;8.246;2023-03-16T02:25:00;100803.88;;;-0.47;100.00
22605;BME280;11469;49.024;8.246;2023-03-16T02:30:30;100796.22;;;-0.55;100.00
22605;BME280;11469;49.024;8.246;2023-03-16T02:32:56;100791.53;;;-0.54;100.00
22605;BME280;11469;49.024;8.246;2023-03-16T02:35:21;100785.19;;;-0.50;100.00
22605;BME280;11469;49.024;8.246;2023-03-16T02:37:47;100784.38;;;-0.50;100.00
22605;BME280;11469;49.024;8.246;2023-03-16T02:40:24;100769.16;;;-0.43;100.00
22605;BME280;11469;49.024;8.246;2023-03-16T02:43:12;100775.00;;;-0.54;100.00
22605;BME280;11469;49.024;8.246;2023-03-16T02:45:49;100776.69;;;-0.69;100.00
22605;BME280;11469;49.024;8.246;2023-03-16T02:48:20;100772.56;;;-0.66;100.00
22605;BME280;11469;49.024;8.246;2023-03-16T02:50:49;100758.78;;;-0.66;100.00
22605;BME280;11469;49.024;8.246;2023-03-16T02:53:16;100772.28;;;-0.70;100.00
22605;BME280;11469;49.024;8.246;2023-03-16T02:55:41;100763.47;;;-0.61;100.00
22605;BME280;11469;49.024;8.246;2023-03-16T02:58:06;100770.06;;;-0.68;100.00
22605;BME280;11469;49.024;8.246;2023-03-16T03:00:32;100768.97;;;-0.72;100.00
22605;BME280;11469;49.024;8.246;2023-03-16T03:02:58;100762.09;;;-0.69;100.00
22605;BME280;11469;49.024;8.246;2023-03-16T03:05:23;100762.63;;;-0.67;100.00
22605;BME280;11469;49.024;8.246;2023-03-16T03:07:51;100760.16;;;-0.63;100.00
22605;BME280;11469;49.024;8.246;2023-03-16T03:10:17;100761.00;;;-0.68;100.00
22605;BME280;11469;49.024;8.246;2023-03-16T03:12:43;100757.13;;;-0.62;100.00
22605;BME280;11469;49.024;8.246;2023-03-16T03:15:13;100748.31;;;-0.69;100.00
22605;BME280;11469;49.024;8.246;2023-03-16T03:17:38;100752.72;;;-0.68;100.00
22605;BME280;11469;49.024;8.246;2023-03-16T03:20:04;100756.88;;;-0.71;100.00
22605;BME280;11469;49.024;8.246;2023-03-16T03:22:38;100740.34;;;-0.71;100.00
22605;BME280;11469;49.024;8.246;2023-03-16T03:25:03;100741.72;;;-0.68;100.00
22605;BME280;11469;49.024;8.246;2023-03-16T03:27:29;100738.41;;;-0.70;100.00
22605;BME280;11469;49.024;8.246;2023-03-16T03:29:54;100727.41;;;-0.65;100.00
22605;BME280;11469;49.024;8.246;2023-03-16T03:32:19;100734.84;;;-0.71;100.00
22605;BME280;11469;49.024;8.246;2023-03-16T03:34:46;100734.59;;;-0.79;100.00
22605;BME280;11469;49.024;8.246;2023-03-16T03:37:11;100743.38;;;-0.77;100.00
22605;BME280;11469;49.024;8.246;2023-03-16T03:39:36;100736.22;;;-0.78;100.00
22605;BME280;11469;49.024;8.246;2023-03-16T03:42:04;100757.41;;;-0.74;100.00
22605;BME280;11469;49.024;8.246;2023-03-16T03:44:30;100745.59;;;-0.79;100.00
22605;BME280;11469;49.024;8.246;2023-03-16T03:46:59;100739.00;;;-0.83;100.00
22605;BME280;11469;49.024;8.246;2023-03-16T03:49:24;100732.66;;;-0.89;100.00
22605;BME280;11469;49.024;8.246;2023-03-16T03:51:50;100728.81;;;-0.88;100.00
22605;BME280;11469;49.024;8.246;2023-03-16T03:54:15;100733.22;;;-0.92;100.00
22605;BME280;11469;49.024;8.246;2023-03-16T03:56:41;100731.88;;;-0.99;100.00
22605;BME280;11469;49.024;8.246;2023-03-16T03:59:07;100732.97;;;-0.95;100.00
22605;BME280;11469;49.024;8.246;2023-03-16T04:01:32;100737.66;;;-1.01;100.00
22605;BME280;11469;49.024;8.246;2023-03-16T04:03:57;100731.34;;;-1.02;100.00
22605;BME280;11469;49.024;8.246;2023-03-16T04:06:23;100724.72;;;-0.95;100.00
22605;BME280;11469;49.024;8.246;2023-03-16T04:08:48;100735.41;;;-0.89;100.00
22605;BME280;11469;49.024;8.246;2023-03-16T04:11:15;100734.59;;;-0.94;100.00
22605;BME280;11469;49.024;8.246;2023-03-16T04:13:40;100745.59;;;-0.94;100.00
22605;BME280;11469;49.024;8.246;2023-03-16T04:16:06;100741.25;;;-0.95;100.00
22605;BME280;11469;49.024;8.246;2023-03-16T04:18:31;100733.22;;;-0.92;100.00
22605;BME280;11469;49.024;8.246;2023-03-16T04:21:04;100734.88;;;-0.91;100.00
22605;BME280;11469;49.024;8.246;2023-03-16T04:23:30;100740.41;;;-0.96;100.00
22605;BME280;11469;49.024;8.246;2023-03-16T04:25:57;100729.13;;;-0.99;100.00
22605;BME280;11469;49.024;8.246;2023-03-16T04:28:23;100727.75;;;-0.97;100.00
22605;BME280;11469;49.024;8.246;2023-03-16T04:30:51;100723.63;;;-0.99;100.00
22605;BME280;11469;49.024;8.246;2023-03-16T04:33:21;100725.56;;;-1.00;100.00
22605;BME280;11469;49.024;8.246;2023-03-16T04:35:47;100731.34;;;-1.02;100.00
22605;BME280;11469;49.024;8.246;2023-03-16T04:38:13;100719.50;;;-1.02;100.00
22605;BME280;11469;49.024;8.246;2023-03-16T04:40:38;100735.72;;;-0.95;100.00
22605;BME280;11469;49.024;8.246;2023-03-16T04:43:03;100731.06;;;-1.00;100.00
22605;BME280;11469;49.024;8.246;2023-03-16T04:45:29;100729.41;;;-1.01;100.00
22605;BME280;11469;49.024;8.246;2023-03-16T04:47:54;100726.94;;;-1.03;100.00
22605;BME280;11469;49.024;8.246;2023-03-16T04:50:20;100724.19;;;-1.03;100.00
22605;BME280;11469;49.024;8.246;2023-03-16T04:52:47;100727.75;;;-1.02;100.00
22605;BME280;11469;49.024;8.246;2023-03-16T04:55:12;100733.53;;;-1.04;100.00
22605;BME280;11469;49.024;8.246;2023-03-16T04:57:37;100730.50;;;-1.02;100.00
22605;BME280;11469;49.024;8.246;2023-03-16T05:00:04;100720.88;;;-0.99;100.00
22605;BME280;11469;49.024;8.246;2023-03-16T05:02:39;100727.19;;;-0.99;100.00
22605;BME280;11469;49.024;8.246;2023-03-16T05:05:04;100725.84;;;-1.02;100.00
22605;BME280;11469;49.024;8.246;2023-03-16T05:07:30;100728.31;;;-0.95;100.00
22605;BME280;11469;49.024;8.246;2023-03-16T05:09:56;100721.16;;;-0.96;100.00
22605;BME280;11469;49.024;8.246;2023-03-16T05:12:21;100728.31;;;-1.00;100.00
22605;BME280;11469;49.024;8.246;2023-03-16T05:14:47;100719.50;;;-1.02;100.00
22605;BME280;11469;49.024;8.246;2023-03-16T05:17:12;100718.13;;;-1.05;100.00
22605;BME280;11469;49.024;8.246;2023-03-16T05:19:39;100719.50;;;-1.02;100.00
22605;BME280;11469;49.024;8.246;2023-03-16T05:22:04;100724.19;;;-1.03;100.00
22605;BME280;11469;49.024;8.246;2023-03-16T05:24:31;100720.06;;;-1.05;100.00
22605;BME280;11469;49.024;8.246;2023-03-16T05:26:56;100712.63;;;-1.10;100.00
22605;BME280;11469;49.024;8.246;2023-03-16T05:29:22;100711.81;;;-1.10;100.00
22605;BME280;11469;49.024;8.246;2023-03-16T05:31:49;100707.69;;;-1.08;100.00
22605;BME280;11469;49.024;8.246;2023-03-16T05:34:14;100706.84;;;-1.08;100.00
22605;BME280;11469;49.024;8.246;2023-03-16T05:36:39;100700.53;;;-1.09;100.00
22605;BME280;11469;49.024;8.246;2023-03-16T05:39:05;100701.06;;;-1.07;100.00
22605;BME280;11469;49.024;8.246;2023-03-16T05:41:32;100701.63;;;-1.10;100.00
22605;BME280;11469;49.024;8.246;2023-03-16T05:43:58;100701.91;;;-1.11;100.00
22605;BME280;11469;49.024;8.246;2023-03-16T05:46:23;100703.00;;;-1.12;100.00
22605;BME280;11469;49.024;8.246;2023-03-16T05:48:49;100708.78;;;-1.14;100.00
22605;BME280;11469;49.024;8.246;2023-03-16T05:51:14;100709.06;;;-1.10;100.00
22605;BME280;11469;49.024;8.246;2023-03-16T05:53:39;100699.69;;;-1.04;100.00
22605;BME280;11469;49.024;8.246;2023-03-16T05:56:05;100704.66;;;-1.01;100.00
22605;BME280;11469;49.024;8.246;2023-03-16T05:58:31;100708.50;;;-1.02;100.00
22605;BME280;11469;49.024;8.246;2023-03-16T06:00:58;100710.44;;;-1.03;100.00
22605;BME280;11469;49.024;8.246;2023-03-16T06:03:26;100715.94;;;-1.03;100.00
22605;BME280;11469;49.024;8.246;2023-03-16T06:05:51;100714.00;;;-0.97;100.00
22605;BME280;11469;49.024;8.246;2023-03-16T06:08:17;100709.88;;;-0.99;100.00
22605;BME280;11469;49.024;8.246;2023-03-16T06:10:45;100712.91;;;-1.01;100.00
22605;BME280;11469;49.024;8.246;2023-03-16T06:13:11;100714.28;;;-0.98;100.00
22605;BME280;11469;49.024;8.246;2023-03-16T06:15:36;100717.03;;;-0.98;100.00
22605;BME280;11469;49.024;8.246;2023-03-16T06:18:01;100720.28;;;-0.91;100.00
22605;BME280;11469;49.024;8.246;2023-03-16T06:20:27;100711.47;;;-0.88;100.00
22605;BME280;11469;49.024;8.246;2023-03-16T06:22:52;100723.31;;;-0.83;100.00
22605;BME280;11469;49.024;8.246;2023-03-16T06:25:18;100705.13;;;-0.74;100.00
22605;BME280;11469;49.024;8.246;2023-03-16T06:27:43;100704.97;;;-0.33;100.00
22605;BME280;11469;49.024;8.246;2023-03-16T06:30:10;100710.38;;;-0.08;100.00
22605;BME280;11469;49.024;8.246;2023-03-16T06:32:37;100705.97;;;-0.09;100.00
22605;BME280;11469;49.024;8.246;2023-03-16T06:35:03;100713.13;;;-0.08;100.00
22605;BME280;11469;49.024;8.246;2023-03-16T06:37:30;100709.56;;;-0.13;100.00
22605;BME280;11469;49.024;8.246;2023-03-16T06:39:55;100710.13;;;-0.11;100.00
22605;BME280;11469;49.024;8.246;2023-03-16T06:42:21;100704.59;;;-0.11;100.00
22605;BME280;11469;49.024;8.246;2023-03-16T06:44:46;100705.72;;;-0.12;100.00
22605;BME280;11469;49.024;8.246;2023-03-16T06:47:12;100705.13;;;-0.09;100.00
22605;BME280;11469;49.024;8.246;2023-03-16T06:49:37;100702.06;;;-0.03;100.00
22605;BME280;11469;49.024;8.246;2023-03-16T06:52:03;100704.50;;;0.04;100.00
22605;BME280;11469;49.024;8.246;2023-03-16T06:54:28;100705.28;;;0.10;100.00
22605;BME280;11469;49.024;8.246;2023-03-16T06:56:56;100701.38;;;0.21;100.00
22605;BME280;11469;49.024;8.246;2023-03-16T06:59:22;100712.66;;;0.24;100.00
22605;BME280;11469;49.024;8.246;2023-03-16T07:01:47;100715.09;;;0.31;100.00
22605;BME280;11469;49.024;8.246;2023-03-16T07:04:14;100707.06;;;0.35;100.00
22605;BME280;11469;49.024;8.246;2023-03-16T07:06:39;100711.16;;;0.42;100.00
22605;BME280;11469;49.024;8.246;2023-03-16T07:09:06;100719.59;;;0.56;100.00
22605;BME280;11469;49.024;8.246;2023-03-16T07:11:31;100724.78;;;0.62;100.00
22605;BME280;11469;49.024;8.246;2023-03-16T07:13:57;100717.78;;;0.75;100.00
22605;BME280;11469;49.024;8.246;2023-03-16T07:16:23;100715.53;;;0.82;100.00
22605;BME280;11469;49.024;8.246;2023-03-16T07:18:48;100713.78;;;0.91;100.00
22605;BME280;11469;49.024;8.246;2023-03-16T07:21:14;100713.41;;;0.98;100.00
22605;BME280;11469;49.024;8.246;2023-03-16T07:23:39;100716.44;;;1.02;100.00
22605;BME280;11469;49.024;8.246;2023-03-16T07:26:05;100718.25;;;1.11;100.00
22605;BME280;11469;49.024;8.246;2023-03-16T07:28:33;100715.75;;;1.15;100.00
22605;BME280;11469;49.024;8.246;2023-03-16T07:30:58;100720.88;;;1.26;100.00
22605;BME280;11469;49.024;8.246;2023-03-16T07:33:23;100720.59;;;1.28;100.00
22605;BME280;11469;49.024;8.246;2023-03-16T07:35:49;100717.44;;;1.40;100.00
22605;BME280;11469;49.024;8.246;2023-03-16T07:38:16;100723.63;;;1.50;100.00
22605;BME280;11469;49.024;8.246;2023-03-16T07:40:41;100729.22;;;1.69;100.00
22605;BME280;11469;49.024;8.246;2023-03-16T07:43:06;100723.06;;;1.77;100.00
22605;BME280;11469;49.024;8.246;2023-03-16T07:45:32;100722.13;;;1.87;100.00
22605;BME280;11469;49.024;8.246;2023-03-16T07:47:57;100715.75;;;2.05;100.00
22605;BME280;11469;49.024;8.246;2023-03-16T07:50:23;100713.69;;;2.16;100.00
22605;BME280;11469;49.024;8.246;2023-03-16T07:52:48;100707.25;;;2.20;100.00
22605;BME280;11469;49.024;8.246;2023-03-16T07:55:14;100706.06;;;2.26;100.00
22605;BME280;11469;49.024;8.246;2023-03-16T07:57:40;100705.00;;;2.41;100.00
22605;BME280;11469;49.024;8.246;2023-03-16T08:00:07;100702.53;;;2.58;100.00
22605;BME280;11469;49.024;8.246;2023-03-16T08:02:33;100706.19;;;2.54;100.00
22605;BME280;11469;49.024;8.246;2023-03-16T08:04:58;100701.88;;;2.29;100.00
22605;BME280;11469;49.024;8.246;2023-03-16T08:07:24;100700.75;;;2.30;100.00
22605;BME280;11469;49.024;8.246;2023-03-16T08:09:50;100703.06;;;2.42;100.00
22605;BME280;11469;49.024;8.246;2023-03-16T08:12:16;100708.81;;;2.64;100.00
22605;BME280;11469;49.024;8.246;2023-03-16T08:14:41;100702.72;;;2.81;100.00
22605;BME280;11469;49.024;8.246;2023-03-16T08:17:09;100701.09;;;2.93;100.00
22605;BME280;11469;49.024;8.246;2023-03-16T08:19:36;100709.53;;;3.02;100.00
22605;BME280;11469;49.024;8.246;2023-03-16T08:22:02;100714.81;;;3.17;100.00
22605;BME280;11469;49.024;8.246;2023-03-16T08:24:28;100712.16;;;3.26;100.00
22605;BME280;11469;49.024;8.246;2023-03-16T08:26:55;100699.31;;;3.44;100.00
22605;BME280;11469;49.024;8.246;2023-03-16T08:29:22;100696.47;;;3.62;100.00
22605;BME280;11469;49.024;8.246;2023-03-16T08:31:47;100694.81;;;3.75;100.00
22605;BME280;11469;49.024;8.246;2023-03-16T08:34:13;100702.00;;;3.76;100.00
22605;BME280;11469;49.024;8.246;2023-03-16T08:36:40;100704.34;;;3.83;100.00
22605;BME280;11469;49.024;8.246;2023-03-16T08:39:08;100718.63;;;3.90;100.00
22605;BME280;11469;49.024;8.246;2023-03-16T08:41:34;100714.81;;;3.99;100.00
22605;BME280;11469;49.024;8.246;2023-03-16T08:43:59;100713.66;;;4.14;100.00
22605;BME280;11469;49.024;8.246;2023-03-16T08:46:25;100711.72;;;4.37;98.98
22605;BME280;11469;49.024;8.246;2023-03-16T08:48:50;100694.03;;;4.47;98.40
22605;BME280;11469;49.024;8.246;2023-03-16T08:51:17;100692.03;;;4.61;97.05
22605;BME280;11469;49.024;8.246;2023-03-16T08:53:43;100692.09;;;4.70;96.75
22605;BME280;11469;49.024;8.246;2023-03-16T08:56:12;100690.31;;;4.74;94.90
22605;BME280;11469;49.024;8.246;2023-03-16T08:58:39;100702.69;;;4.90;92.33
22605;BME280;11469;49.024;8.246;2023-03-16T09:01:10;100694.59;;;5.02;90.36
22605;BME280;11469;49.024;8.246;2023-03-16T09:03:36;100686.31;;;5.11;88.64
22605;BME280;11469;49.024;8.246;2023-03-16T09:06:04;100684.88;;;5.22;88.94
22605;BME280;11469;49.024;8.246;2023-03-16T09:08:30;100681.19;;;5.35;89.44
22605;BME280;11469;49.024;8.246;2023-03-16T09:11:00;100675.13;;;5.33;89.72
22605;BME280;11469;49.024;8.246;2023-03-16T09:13:26;100668.78;;;5.41;91.03
22605;BME280;11469;49.024;8.246;2023-03-16T09:15:53;100670.16;;;5.52;90.48
22605;BME280;11469;49.024;8.246;2023-03-16T09:18:18;100668.00;;;5.49;89.36
22605;BME280;11469;49.024;8.246;2023-03-16T09:20:44;100672.66;;;5.62;90.05
22605;BME280;11469;49.024;8.246;2023-03-16T09:23:12;100677.56;;;5.65;89.02
22605;BME280;11469;49.024;8.246;2023-03-16T09:25:38;100674.13;;;5.77;89.07
22605;BME280;11469;49.024;8.246;2023-03-16T09:28:04;100676.41;;;5.66;88.10
22605;BME280;11469;49.024;8.246;2023-03-16T09:30:29;100681.03;;;5.88;88.16
22605;BME280;11469;49.024;8.246;2023-03-16T09:32:54;100691.09;;;5.98;85.88
22605;BME280;11469;49.024;8.246;2023-03-16T09:35:20;100684.56;;;6.11;85.81
22605;BME280;11469;49.024;8.246;2023-03-16T09:37:46;100666.38;;;6.22;84.42
22605;BME280;11469;49.024;8.246;2023-03-16T09:40:20;100668.19;;;6.10;84.35
22605;BME280;11469;49.024;8.246;2023-03-16T09:43:38;100666.03;;;6.15;84.50
22605;BME280;11469;49.024;8.246;2023-03-16T09:48:32;100673.25;;;6.16;81.89
22605;BME280;11469;49.024;8.246;2023-03-16T09:51:02;100664.09;;;6.33;81.10
22605;BME280;11469;49.024;8.246;2023-03-16T09:53:37;100647.09;;;6.43;81.20
22605;BME280;11469;49.024;8.246;2023-03-16T09:56:12;100646.91;;;6.48;77.71
22605;BME280;11469;49.024;8.246;2023-03-16T09:58:40;100644.94;;;6.57;73.30
22605;BME280;11469;49.024;8.246;2023-03-16T10:07:03;100633.41;;;6.85;74.32
22605;BME280;11469;49.024;8.246;2023-03-16T10:09:56;100634.47;;;7.10;75.58
22605;BME280;11469;49.024;8.246;2023-03-16T10:12:27;100626.41;;;7.25;75.08
22605;BME280;11469;49.024;8.246;2023-03-16T10:15:06;100616.38;;;7.33;77.54
22605;BME280;11469;49.024;8.246;2023-03-16T10:17:42;100617.09;;;7.51;76.80
22605;BME280;11469;49.024;8.246;2023-03-16T10:20:17;100623.38;;;7.69;75.72
22605;BME280;11469;49.024;8.246;2023-03-16T10:22:45;100622.34;;;7.82;76.19
22605;BME280;11469;49.024;8.246;2023-03-16T10:27:48;100628.53;;;7.87;75.01
22605;BME280;11469;49.024;8.246;2023-03-16T10:32:44;100614.03;;;8.15;74.42
22605;BME280;11469;49.024;8.246;2023-03-16T10:43:42;100615.53;;;8.54;71.15
22605;BME280;11469;49.024;8.246;2023-03-16T10:46:09;100609.66;;;8.68;70.33
22605;BME280;11469;49.024;8.246;2023-03-16T10:48:37;100613.19;;;8.77;70.28
22605;BME280;11469;49.024;8.246;2023-03-16T10:51:10;100600.88;;;8.90;68.54
22605;BME280;11469;49.024;8.246;2023-03-16T10:53:40;100608.84;;;9.12;66.47
22605;BME280;11469;49.024;8.246;2023-03-16T10:56:12;100610.53;;;8.80;65.48
22605;BME280;11469;49.024;8.246;2023-03-16T10:58:44;100603.09;;;8.84;66.05
22605;BME280;11469;49.024;8.246;2023-03-16T11:01:23;100602.41;;;8.99;65.23
22605;BME280;11469;49.024;8.246;2023-03-16T11:03:55;100600.09;;;9.14;65.60
22605;BME280;11469;49.024;8.246;2023-03-16T11:06:29;100585.78;;;9.27;63.65
22605;BME280;11469;49.024;8.246;2023-03-16T11:09:17;100586.81;;;9.47;64.16
22605;BME280;11469;49.024;8.246;2023-03-16T11:11:47;100583.44;;;9.66;63.43
22605;BME280;11469;49.024;8.246;2023-03-16T11:14:19;100587.38;;;9.89;63.62
22605;BME280;11469;49.024;8.246;2023-03-16T11:17:02;100582.56;;;10.02;62.68
22605;BME280;11469;49.024;8.246;2023-03-16T11:19:35;100586.75;;;10.08;63.78
22605;BME280;11469;49.024;8.246;2023-03-16T11:22:16;100581.34;;;10.15;61.97
22605;BME280;11469;49.024;8.246;2023-03-16T11:24:49;100570.88;;;10.24;62.59
22605;BME280;11469;49.024;8.246;2023-03-16T11:27:23;100564.19;;;10.17;62.48
22605;BME280;11469;49.024;8.246;2023-03-16T11:30:14;100568.84;;;10.37;62.02
22605;BME280;11469;49.024;8.246;2023-03-16T11:32:46;100563.75;;;10.15;61.60
22605;BME280;11469;49.024;8.246;2023-03-16T11:35:16;100562.66;;;10.32;61.32
22605;BME280;11469;49.024;8.246;2023-03-16T11:38:07;100556.38;;;10.50;61.72
22605;BME280;11469;49.024;8.246;2023-03-16T11:40:42;100552.16;;;10.56;62.04
22605;BME280;11469;49.024;8.246;2023-03-16T11:46:10;100545.41;;;10.73;62.43
22605;BME280;11469;49.024;8.246;2023-03-16T11:55:31;100537.72;;;10.70;63.04
22605;BME280;11469;49.024;8.246;2023-03-16T12:00:30;100532.31;;;10.77;61.30
22605;BME280;11469;49.024;8.246;2023-03-16T12:06:12;100529.75;;;10.88;63.66
22605;BME280;11469;49.024;8.246;2023-03-16T12:11:29;100528.31;;;10.94;61.64
22605;BME280;11469;49.024;8.246;2023-03-16T12:13:59;100522.81;;;10.97;61.37
22605;BME280;11469;49.024;8.246;2023-03-16T12:22:16;100504.06;;;11.17;59.91
22605;BME280;11469;49.024;8.246;2023-03-16T12:24:44;100517.47;;;11.08;59.76
22605;BME280;11469;49.024;8.246;2023-03-16T12:27:20;100500.19;;;11.22;59.71
22605;BME280;11469;49.024;8.246;2023-03-16T12:30:23;100486.59;;;11.24;59.59
22605;BME280;11469;49.024;8.246;2023-03-16T12:33:00;100482.81;;;11.32;56.87
22605;BME280;11469;49.024;8.246;2023-03-16T12:46:07;100470.94;;;11.58;57.18
22605;BME280;11469;49.024;8.246;2023-03-16T12:48:40;100464.69;;;11.64;57.25
22605;BME280;11469;49.024;8.246;2023-03-16T12:51:07;100465.53;;;11.84;57.93
22605;BME280;11469;49.024;8.246;2023-03-16T12:56:43;100474.41;;;11.86;56.27
22605;BME280;11469;49.024;8.246;2023-03-16T12:59:16;100454.06;;;11.74;54.67
22605;BME280;11469;49.024;8.246;2023-03-16T13:01:44;100459.06;;;11.80;56.35
22605;BME280;11469;49.024;8.246;2023-03-16T13:04:21;100456.81;;;11.89;56.04
22605;BME280;11469;49.024;8.246;2023-03-16T13:07:00;100451.63;;;11.91;57.11
22605;BME280;11469;49.024;8.246;2023-03-16T13:09:27;100443.13;;;12.07;57.11
22605;BME280;11469;49.024;8.246;2023-03-16T13:11:56;100437.88;;;12.25;57.04
22605;BME280;11469;49.024;8.246;2023-03-16T13:14:39;100436.09;;;12.17;55.69
22605;BME280;11469;49.024;8.246;2023-03-16T13:17:22;100437.06;;;12.24;53.15
22605;BME280;11469;49.024;8.246;2023-03-16T13:22:46;100435.66;;;12.15;52.39
22605;BME280;11469;49.024;8.246;2023-03-16T13:27:48;100424.19;;;12.23;51.07
22605;BME280;11469;49.024;8.246;2023-03-16T13:30:25;100417.47;;;12.51;51.45
22605;BME280;11469;49.024;8.246;2023-03-16T13:32:54;100414.38;;;12.37;51.92
22605;BME280;11469;49.024;8.246;2023-03-16T13:35:24;100415.03;;;12.49;51.43
22605;BME280;11469;49.024;8.246;2023-03-16T13:37:50;100407.47;;;12.53;50.28
22605;BME280;11469;49.024;8.246;2023-03-16T13:40:24;100401.78;;;12.50;49.55
22605;BME280;11469;49.024;8.246;2023-03-16T13:42:52;100392.22;;;12.54;49.53
22605;BME280;11469;49.024;8.246;2023-03-16T13:45:32;100392.09;;;12.70;48.99
22605;BME280;11469;49.024;8.246;2023-03-16T13:47:59;100389.56;;;12.88;50.10
22605;BME280;11469;49.024;8.246;2023-03-16T13:50:29;100380.03;;;12.96;50.16
22605;BME280;11469;49.024;8.246;2023-03-16T13:52:58;100374.91;;;13.02;48.46
22605;BME280;11469;49.024;8.246;2023-03-16T13:55:33;100376.63;;;13.10;48.96
22605;BME280;11469;49.024;8.246;2023-03-16T13:58:00;100374.31;;;13.15;47.02
22605;BME280;11469;49.024;8.246;2023-03-16T14:00:36;100362.63;;;13.13;46.08
22605;BME280;11469;49.024;8.246;2023-03-16T14:03:17;100354.75;;;13.22;47.14